BAW918 EGLL-EDDL
Flight info
| Callsign | BAW918 |
|---|---|
| Flight time | 0h 57m |
| Altitude | 33000 |
| Route | DCT BPK Q295 BRAIN M197 REDFA L620 PAM P62 PISAP DCT |
| Aircraft | A320/M-SDE3FGIJ1KRWXY/SB1 |
Departure
| Time | 2026-05-07 05:34 |
|---|---|
| Airport | London Heathrow Airport (EGLL) |
Arrival
| Time | 2026-05-07 06:32 |
|---|---|
| Airport | Düsseldorf Airport (EDDL) |
| Time | Latitude | Longitude | Altitude | Speed | Heading |
|---|---|---|---|---|---|
| 2026-05-07 04:55 | 51.47271 | -0.48585 | 86 ft | 0 kts | 269° |
| 2026-05-07 05:24 | 51.47271 | -0.48561 | 91 ft | 4 kts | 269° |
| 2026-05-07 05:24 | 51.47271 | -0.48524 | 88 ft | 2 kts | 270° |
| 2026-05-07 05:25 | 51.47275 | -0.48487 | 88 ft | 4 kts | 226° |
| 2026-05-07 05:25 | 51.47295 | -0.48473 | 88 ft | 3 kts | 179° |
| 2026-05-07 05:25 | 51.47311 | -0.48473 | 86 ft | 0 kts | 179° |
| 2026-05-07 05:28 | 51.47301 | -0.48473 | 89 ft | 3 kts | 179° |
| 2026-05-07 05:28 | 51.47275 | -0.48473 | 86 ft | 5 kts | 179° |
| 2026-05-07 05:28 | 51.47232 | -0.48473 | 86 ft | 8 kts | 179° |
| 2026-05-07 05:29 | 51.47170 | -0.48472 | 88 ft | 10 kts | 179° |
| 2026-05-07 05:29 | 51.47089 | -0.48472 | 89 ft | 13 kts | 180° |
| 2026-05-07 05:29 | 51.46997 | -0.48471 | 88 ft | 10 kts | 179° |
| 2026-05-07 05:29 | 51.46929 | -0.48470 | 86 ft | 10 kts | 179° |
| 2026-05-07 05:30 | 51.46847 | -0.48469 | 86 ft | 13 kts | 179° |
| 2026-05-07 05:30 | 51.46745 | -0.48468 | 86 ft | 16 kts | 179° |
| 2026-05-07 05:30 | 51.46638 | -0.48467 | 86 ft | 12 kts | 179° |
| 2026-05-07 05:30 | 51.46599 | -0.48467 | 86 ft | 0 kts | 180° |
| 2026-05-07 05:32 | 51.46588 | -0.48467 | 77 ft | 3 kts | 180° |
| 2026-05-07 05:33 | 51.46549 | -0.48468 | 86 ft | 7 kts | 180° |
| 2026-05-07 05:33 | 51.46490 | -0.48458 | 88 ft | 10 kts | 148° |
| 2026-05-07 05:33 | 51.46479 | -0.48341 | 87 ft | 14 kts | 90° |
| 2026-05-07 05:33 | 51.46480 | -0.47860 | 89 ft | 80 kts | 90° |
| 2026-05-07 05:34 | 51.46486 | -0.46632 | 91 ft | 137 kts | 89° |
| 2026-05-07 05:34 | 51.46500 | -0.44903 | 391 ft | 160 kts | 88° |
| 2026-05-07 05:34 | 51.46524 | -0.43137 | 1185 ft | 158 kts | 88° |
| 2026-05-07 05:34 | 51.46679 | -0.41313 | 1591 ft | 177 kts | 68° |
| 2026-05-07 05:35 | 51.47439 | -0.39636 | 1890 ft | 199 kts | 44° |
| 2026-05-07 05:35 | 51.48447 | -0.37906 | 2232 ft | 225 kts | 50° |
| 2026-05-07 05:35 | 51.49501 | -0.35874 | 2704 ft | 248 kts | 51° |
| 2026-05-07 05:35 | 51.50614 | -0.33669 | 3470 ft | 258 kts | 51° |
| 2026-05-07 05:36 | 51.51751 | -0.31403 | 4389 ft | 264 kts | 52° |
| 2026-05-07 05:36 | 51.52593 | -0.28761 | 5276 ft | 270 kts | 71° |
| 2026-05-07 05:36 | 51.53188 | -0.25888 | 6210 ft | 273 kts | 71° |
| 2026-05-07 05:36 | 51.53980 | -0.23094 | 7063 ft | 277 kts | 55° |
| 2026-05-07 05:37 | 51.55300 | -0.20842 | 7911 ft | 280 kts | 35° |
| 2026-05-07 05:37 | 51.57030 | -0.19422 | 8766 ft | 282 kts | 20° |
| 2026-05-07 05:37 | 51.58866 | -0.18243 | 9670 ft | 285 kts | 19° |
| 2026-05-07 05:37 | 51.60783 | -0.17292 | 10340 ft | 295 kts | 15° |
| 2026-05-07 05:38 | 51.62801 | -0.16335 | 10581 ft | 318 kts | 15° |
| 2026-05-07 05:38 | 51.64991 | -0.15306 | 10927 ft | 335 kts | 15° |
| 2026-05-07 05:38 | 51.67248 | -0.14250 | 11577 ft | 341 kts | 15° |
| 2026-05-07 05:38 | 51.69538 | -0.13168 | 12272 ft | 345 kts | 18° |
| 2026-05-07 05:39 | 51.71709 | -0.11485 | 12941 ft | 350 kts | 33° |
| 2026-05-07 05:39 | 51.73553 | -0.08895 | 13626 ft | 355 kts | 49° |
| 2026-05-07 05:39 | 51.74928 | -0.05568 | 14253 ft | 359 kts | 64° |
| 2026-05-07 05:39 | 51.75717 | -0.01732 | 14866 ft | 363 kts | 80° |
| 2026-05-07 05:40 | 51.76073 | 0.02317 | 15479 ft | 366 kts | 82° |
| 2026-05-07 05:40 | 51.76413 | 0.06408 | 16073 ft | 370 kts | 82° |
| 2026-05-07 05:40 | 51.76751 | 0.10532 | 16673 ft | 373 kts | 82° |
| 2026-05-07 05:40 | 51.77088 | 0.14704 | 17280 ft | 376 kts | 82° |
| 2026-05-07 05:41 | 51.77428 | 0.18914 | 17877 ft | 380 kts | 82° |
| 2026-05-07 05:41 | 51.77773 | 0.23159 | 18464 ft | 383 kts | 82° |
| 2026-05-07 05:41 | 51.78122 | 0.27431 | 18995 ft | 386 kts | 82° |
| 2026-05-07 05:41 | 51.78472 | 0.31760 | 19543 ft | 389 kts | 82° |
| 2026-05-07 05:42 | 51.78820 | 0.36107 | 20087 ft | 393 kts | 82° |
| 2026-05-07 05:42 | 51.79171 | 0.40500 | 20623 ft | 396 kts | 82° |
| 2026-05-07 05:42 | 51.79524 | 0.44922 | 21144 ft | 399 kts | 82° |
| 2026-05-07 05:42 | 51.79879 | 0.49377 | 21658 ft | 402 kts | 82° |
| 2026-05-07 05:43 | 51.80235 | 0.53870 | 22135 ft | 405 kts | 82° |
| 2026-05-07 05:43 | 51.80591 | 0.58405 | 22610 ft | 408 kts | 82° |
| 2026-05-07 05:43 | 51.80947 | 0.62967 | 23096 ft | 411 kts | 82° |
| 2026-05-07 05:43 | 51.81469 | 0.67515 | 23596 ft | 413 kts | 76° |
| 2026-05-07 05:44 | 51.82158 | 0.72020 | 24015 ft | 415 kts | 76° |
| 2026-05-07 05:44 | 51.82855 | 0.76562 | 24440 ft | 417 kts | 75° |
| 2026-05-07 05:44 | 51.83559 | 0.81117 | 24873 ft | 419 kts | 75° |
| 2026-05-07 05:44 | 51.84305 | 0.85681 | 25299 ft | 420 kts | 74° |
| 2026-05-07 05:45 | 51.85109 | 0.90170 | 25717 ft | 422 kts | 73° |
| 2026-05-07 05:45 | 51.85977 | 0.94782 | 26132 ft | 424 kts | 72° |
| 2026-05-07 05:45 | 51.86848 | 0.99349 | 26528 ft | 426 kts | 72° |
| 2026-05-07 05:45 | 51.87706 | 1.03892 | 26882 ft | 429 kts | 72° |
| 2026-05-07 05:46 | 51.88565 | 1.08533 | 27272 ft | 432 kts | 73° |
| 2026-05-07 05:46 | 51.89413 | 1.13204 | 27669 ft | 434 kts | 73° |
| 2026-05-07 05:46 | 51.90267 | 1.17970 | 28083 ft | 436 kts | 73° |
| 2026-05-07 05:46 | 51.91106 | 1.22687 | 28478 ft | 438 kts | 73° |
| 2026-05-07 05:47 | 51.91942 | 1.27376 | 28863 ft | 440 kts | 73° |
| 2026-05-07 05:47 | 51.92792 | 1.32146 | 29240 ft | 442 kts | 73° |
| 2026-05-07 05:47 | 51.93644 | 1.36935 | 29611 ft | 444 kts | 73° |
| 2026-05-07 05:47 | 51.94499 | 1.41752 | 29986 ft | 446 kts | 73° |
| 2026-05-07 05:48 | 51.95352 | 1.46574 | 30427 ft | 445 kts | 73° |
| 2026-05-07 05:48 | 51.96204 | 1.51399 | 30808 ft | 446 kts | 73° |
| 2026-05-07 05:48 | 51.97057 | 1.56236 | 31189 ft | 446 kts | 73° |
| 2026-05-07 05:48 | 51.97904 | 1.61073 | 31611 ft | 446 kts | 73° |
| 2026-05-07 05:49 | 51.98745 | 1.65901 | 32067 ft | 445 kts | 73° |
| 2026-05-07 05:49 | 51.99577 | 1.70724 | 32534 ft | 443 kts | 74° |
| 2026-05-07 05:49 | 52.00365 | 1.75564 | 32955 ft | 444 kts | 75° |
| 2026-05-07 05:49 | 52.01117 | 1.80410 | 33058 ft | 443 kts | 75° |
| 2026-05-07 05:50 | 52.01848 | 1.85252 | 33066 ft | 442 kts | 76° |
| 2026-05-07 05:50 | 52.03303 | 1.94930 | 33067 ft | 441 kts | 75° |
| 2026-05-07 05:51 | 52.04782 | 2.04582 | 33066 ft | 440 kts | 75° |
| 2026-05-07 05:51 | 52.06261 | 2.14242 | 33068 ft | 440 kts | 75° |
| 2026-05-07 05:52 | 52.07733 | 2.23911 | 33068 ft | 440 kts | 75° |
| 2026-05-07 05:52 | 52.09192 | 2.33577 | 33067 ft | 440 kts | 75° |
| 2026-05-07 05:53 | 52.10642 | 2.43257 | 33070 ft | 440 kts | 75° |
| 2026-05-07 05:53 | 52.12146 | 2.52917 | 33057 ft | 441 kts | 73° |
| 2026-05-07 05:54 | 52.13963 | 2.62474 | 33044 ft | 443 kts | 71° |
| 2026-05-07 05:54 | 52.15879 | 2.72008 | 33047 ft | 444 kts | 71° |
| 2026-05-07 05:55 | 52.17726 | 2.81531 | 33050 ft | 445 kts | 72° |
| 2026-05-07 05:55 | 52.19523 | 2.91187 | 33055 ft | 445 kts | 72° |
| 2026-05-07 05:56 | 52.21310 | 3.00855 | 33046 ft | 446 kts | 73° |
| 2026-05-07 05:56 | 52.23106 | 3.10540 | 33043 ft | 447 kts | 72° |
| 2026-05-07 05:57 | 52.24906 | 3.20259 | 33046 ft | 448 kts | 72° |
| 2026-05-07 05:57 | 52.26691 | 3.29976 | 33064 ft | 447 kts | 72° |
| 2026-05-07 05:58 | 52.28468 | 3.39689 | 33064 ft | 446 kts | 72° |
| 2026-05-07 05:58 | 52.30243 | 3.49386 | 33064 ft | 446 kts | 73° |
| 2026-05-07 05:59 | 52.32018 | 3.59116 | 33050 ft | 447 kts | 73° |
| 2026-05-07 05:59 | 52.33775 | 3.68878 | 33051 ft | 448 kts | 73° |
| 2026-05-07 06:00 | 52.35526 | 3.78663 | 33057 ft | 449 kts | 73° |
| 2026-05-07 06:00 | 52.36659 | 3.88678 | 33061 ft | 449 kts | 88° |
| 2026-05-07 06:01 | 52.36483 | 3.98895 | 33057 ft | 449 kts | 92° |
| 2026-05-07 06:01 | 52.36255 | 4.09107 | 33061 ft | 449 kts | 92° |
| 2026-05-07 06:02 | 52.36016 | 4.19314 | 33051 ft | 449 kts | 92° |
| 2026-05-07 06:02 | 52.35763 | 4.29534 | 33051 ft | 449 kts | 92° |
| 2026-05-07 06:03 | 52.35508 | 4.39729 | 33044 ft | 449 kts | 92° |
| 2026-05-07 06:03 | 52.35242 | 4.49857 | 33043 ft | 449 kts | 92° |
| 2026-05-07 06:04 | 52.34967 | 4.60060 | 33034 ft | 449 kts | 92° |
| 2026-05-07 06:04 | 52.34675 | 4.70244 | 33058 ft | 449 kts | 93° |
| 2026-05-07 06:05 | 52.34375 | 4.80429 | 33060 ft | 449 kts | 93° |
| 2026-05-07 06:05 | 52.34068 | 4.90633 | 33063 ft | 449 kts | 93° |
| 2026-05-07 06:06 | 52.33744 | 5.00843 | 33057 ft | 449 kts | 93° |
| 2026-05-07 06:06 | 52.32793 | 5.10902 | 33051 ft | 448 kts | 108° |
| 2026-05-07 06:07 | 52.30777 | 5.18682 | 33048 ft | 448 kts | 116° |
| 2026-05-07 06:07 | 52.27676 | 5.29444 | 33050 ft | 448 kts | 116° |
| 2026-05-07 06:08 | 52.25478 | 5.37084 | 33049 ft | 448 kts | 116° |
| 2026-05-07 06:08 | 52.22823 | 5.46264 | 33043 ft | 448 kts | 116° |
| 2026-05-07 06:08 | 52.21490 | 5.50853 | 32566 ft | 449 kts | 116° |
| 2026-05-07 06:09 | 52.20133 | 5.55512 | 31395 ft | 460 kts | 116° |
| 2026-05-07 06:09 | 52.18770 | 5.60187 | 31094 ft | 450 kts | 116° |
| 2026-05-07 06:09 | 52.17432 | 5.64764 | 30511 ft | 446 kts | 116° |
| 2026-05-07 06:09 | 52.16101 | 5.69312 | 29932 ft | 444 kts | 116° |
| 2026-05-07 06:10 | 52.14779 | 5.73825 | 29316 ft | 439 kts | 116° |
| 2026-05-07 06:10 | 52.13469 | 5.78285 | 28753 ft | 434 kts | 116° |
| 2026-05-07 06:10 | 52.12175 | 5.82693 | 28195 ft | 430 kts | 116° |
| 2026-05-07 06:10 | 52.10892 | 5.87062 | 27662 ft | 425 kts | 116° |
| 2026-05-07 06:11 | 52.09621 | 5.91379 | 27122 ft | 421 kts | 116° |
| 2026-05-07 06:11 | 52.08356 | 5.95650 | 26593 ft | 417 kts | 116° |
| 2026-05-07 06:11 | 52.07102 | 5.99877 | 26070 ft | 414 kts | 116° |
| 2026-05-07 06:11 | 52.05858 | 6.04076 | 25566 ft | 410 kts | 116° |
| 2026-05-07 06:12 | 52.04625 | 6.08238 | 25061 ft | 407 kts | 116° |
| 2026-05-07 06:12 | 52.03416 | 6.12313 | 24576 ft | 404 kts | 116° |
| 2026-05-07 06:12 | 52.02182 | 6.16467 | 24116 ft | 402 kts | 116° |
| 2026-05-07 06:12 | 52.00985 | 6.20486 | 23658 ft | 400 kts | 116° |
| 2026-05-07 06:13 | 51.99773 | 6.24529 | 23156 ft | 397 kts | 116° |
| 2026-05-07 06:13 | 51.98570 | 6.28530 | 22700 ft | 392 kts | 117° |
| 2026-05-07 06:13 | 51.97378 | 6.32480 | 22242 ft | 388 kts | 117° |
| 2026-05-07 06:13 | 51.96199 | 6.36385 | 21801 ft | 384 kts | 117° |
| 2026-05-07 06:14 | 51.95031 | 6.40253 | 21342 ft | 380 kts | 117° |
| 2026-05-07 06:14 | 51.93874 | 6.44084 | 20870 ft | 377 kts | 117° |
| 2026-05-07 06:14 | 51.92729 | 6.47879 | 20408 ft | 373 kts | 117° |
| 2026-05-07 06:14 | 51.91581 | 6.51635 | 19941 ft | 370 kts | 119° |
| 2026-05-07 06:15 | 51.90164 | 6.55083 | 19447 ft | 367 kts | 131° |
| 2026-05-07 06:15 | 51.88356 | 6.57965 | 18978 ft | 364 kts | 143° |
| 2026-05-07 06:15 | 51.86242 | 6.60166 | 18481 ft | 361 kts | 155° |
| 2026-05-07 06:15 | 51.83920 | 6.61647 | 17949 ft | 358 kts | 164° |
| 2026-05-07 06:16 | 51.81555 | 6.62863 | 17444 ft | 355 kts | 163° |
| 2026-05-07 06:16 | 51.79211 | 6.64053 | 16955 ft | 352 kts | 167° |
| 2026-05-07 06:16 | 51.76828 | 6.64946 | 16537 ft | 354 kts | 168° |
| 2026-05-07 06:16 | 51.74421 | 6.65826 | 16109 ft | 355 kts | 168° |
| 2026-05-07 06:17 | 51.72020 | 6.66699 | 15689 ft | 353 kts | 168° |
| 2026-05-07 06:17 | 51.69630 | 6.67564 | 15257 ft | 351 kts | 168° |
| 2026-05-07 06:17 | 51.67249 | 6.68424 | 14835 ft | 349 kts | 168° |
| 2026-05-07 06:17 | 51.64886 | 6.69274 | 14412 ft | 347 kts | 168° |
| 2026-05-07 06:18 | 51.62536 | 6.70119 | 13995 ft | 345 kts | 168° |
| 2026-05-07 06:18 | 51.60194 | 6.70962 | 13549 ft | 344 kts | 168° |
| 2026-05-07 06:18 | 51.57860 | 6.71804 | 13121 ft | 343 kts | 168° |
| 2026-05-07 06:18 | 51.55536 | 6.72641 | 12708 ft | 341 kts | 168° |
| 2026-05-07 06:19 | 51.53225 | 6.73473 | 12290 ft | 340 kts | 168° |
| 2026-05-07 06:19 | 51.50919 | 6.74303 | 11888 ft | 339 kts | 168° |
| 2026-05-07 06:19 | 51.48629 | 6.75124 | 11503 ft | 335 kts | 168° |
| 2026-05-07 06:19 | 51.46361 | 6.75559 | 11371 ft | 323 kts | 180° |
| 2026-05-07 06:20 | 51.44167 | 6.75273 | 11244 ft | 311 kts | 188° |
| 2026-05-07 06:20 | 51.42052 | 6.74866 | 11118 ft | 301 kts | 187° |
| 2026-05-07 06:20 | 51.40009 | 6.74445 | 10992 ft | 292 kts | 192° |
| 2026-05-07 06:20 | 51.38143 | 6.73346 | 10870 ft | 281 kts | 212° |
| 2026-05-07 06:21 | 51.36649 | 6.71435 | 10744 ft | 271 kts | 230° |
| 2026-05-07 06:21 | 51.35509 | 6.69090 | 10572 ft | 265 kts | 235° |
| 2026-05-07 06:21 | 51.34398 | 6.66751 | 10318 ft | 263 kts | 234° |
| 2026-05-07 06:21 | 51.33295 | 6.64437 | 9917 ft | 262 kts | 234° |
| 2026-05-07 06:22 | 51.32191 | 6.62126 | 9500 ft | 260 kts | 234° |
| 2026-05-07 06:22 | 51.30022 | 6.57602 | 8859 ft | 254 kts | 234° |
| 2026-05-07 06:22 | 51.28952 | 6.55375 | 8433 ft | 252 kts | 234° |
| 2026-05-07 06:23 | 51.27902 | 6.53188 | 8026 ft | 250 kts | 234° |
| 2026-05-07 06:23 | 51.26845 | 6.50988 | 7605 ft | 249 kts | 234° |
| 2026-05-07 06:23 | 51.25794 | 6.48801 | 7190 ft | 248 kts | 234° |
| 2026-05-07 06:23 | 51.24748 | 6.46626 | 6790 ft | 246 kts | 234° |
| 2026-05-07 06:24 | 51.23704 | 6.44465 | 6398 ft | 245 kts | 234° |
| 2026-05-07 06:24 | 51.22669 | 6.42319 | 5971 ft | 244 kts | 234° |
| 2026-05-07 06:24 | 51.21641 | 6.40191 | 5558 ft | 243 kts | 234° |
| 2026-05-07 06:24 | 51.20590 | 6.38089 | 5122 ft | 242 kts | 227° |
| 2026-05-07 06:25 | 51.19164 | 6.36774 | 4846 ft | 238 kts | 193° |
| 2026-05-07 06:25 | 51.17545 | 6.36827 | 4586 ft | 233 kts | 162° |
| 2026-05-07 06:25 | 51.16059 | 6.37791 | 4326 ft | 229 kts | 147° |
| 2026-05-07 06:25 | 51.14922 | 6.39496 | 4059 ft | 223 kts | 126° |
| 2026-05-07 06:26 | 51.14173 | 6.41605 | 3800 ft | 217 kts | 105° |
| 2026-05-07 06:26 | 51.13946 | 6.43935 | 3543 ft | 211 kts | 84° |
| 2026-05-07 06:26 | 51.14231 | 6.46179 | 3289 ft | 205 kts | 65° |
| 2026-05-07 06:26 | 51.14953 | 6.48089 | 3056 ft | 198 kts | 49° |
| 2026-05-07 06:27 | 51.15776 | 6.49790 | 3004 ft | 190 kts | 50° |
| 2026-05-07 06:27 | 51.16578 | 6.51455 | 3008 ft | 188 kts | 50° |
| 2026-05-07 06:27 | 51.17374 | 6.53108 | 3010 ft | 188 kts | 50° |
| 2026-05-07 06:27 | 51.18154 | 6.54729 | 3029 ft | 180 kts | 50° |
| 2026-05-07 06:28 | 51.18894 | 6.56271 | 3007 ft | 172 kts | 50° |
| 2026-05-07 06:28 | 51.19620 | 6.57780 | 2883 ft | 170 kts | 50° |
| 2026-05-07 06:28 | 51.20325 | 6.59249 | 2696 ft | 164 kts | 50° |
| 2026-05-07 06:28 | 51.21010 | 6.60676 | 2488 ft | 160 kts | 49° |
| 2026-05-07 06:29 | 51.21684 | 6.62080 | 2273 ft | 159 kts | 50° |
| 2026-05-07 06:29 | 51.22344 | 6.63456 | 2060 ft | 158 kts | 49° |
| 2026-05-07 06:29 | 51.23011 | 6.64847 | 1848 ft | 158 kts | 50° |
| 2026-05-07 06:29 | 51.23671 | 6.66226 | 1629 ft | 154 kts | 50° |
| 2026-05-07 06:30 | 51.24303 | 6.67547 | 1412 ft | 146 kts | 50° |
| 2026-05-07 06:30 | 51.24901 | 6.68798 | 1254 ft | 138 kts | 49° |
| 2026-05-07 06:30 | 51.25477 | 6.70000 | 1050 ft | 135 kts | 49° |
| 2026-05-07 06:30 | 51.26047 | 6.71192 | 845 ft | 136 kts | 49° |
| 2026-05-07 06:31 | 51.26622 | 6.72395 | 668 ft | 136 kts | 50° |
| 2026-05-07 06:31 | 51.27196 | 6.73595 | 477 ft | 136 kts | 50° |
| 2026-05-07 06:31 | 51.27772 | 6.74803 | 297 ft | 137 kts | 49° |
| 2026-05-07 06:31 | 51.28346 | 6.76005 | 135 ft | 135 kts | 50° |
| 2026-05-07 06:32 | 51.28791 | 6.76943 | 131 ft | 65 kts | 53° |
| 2026-05-07 06:32 | 51.28978 | 6.77330 | 126 ft | 29 kts | 52° |
| 2026-05-07 06:32 | 51.29013 | 6.77562 | 129 ft | 17 kts | 121° |
| 2026-05-07 06:32 | 51.28920 | 6.77653 | 124 ft | 15 kts | 188° |
| 2026-05-07 06:33 | 51.28844 | 6.77521 | 126 ft | 18 kts | 233° |
| 2026-05-07 06:33 | 51.28763 | 6.77348 | 125 ft | 21 kts | 233° |
| 2026-05-07 06:33 | 51.28668 | 6.77150 | 126 ft | 24 kts | 232° |
| 2026-05-07 06:33 | 51.28560 | 6.76925 | 126 ft | 27 kts | 233° |
| 2026-05-07 06:34 | 51.28439 | 6.76669 | 123 ft | 31 kts | 233° |
| 2026-05-07 06:34 | 51.28320 | 6.76421 | 124 ft | 27 kts | 232° |
| 2026-05-07 06:34 | 51.28205 | 6.76181 | 126 ft | 26 kts | 233° |
| 2026-05-07 06:34 | 51.28109 | 6.75981 | 128 ft | 23 kts | 233° |
| 2026-05-07 06:35 | 51.28031 | 6.75832 | 129 ft | 15 kts | 213° |
| 2026-05-07 06:35 | 51.27919 | 6.75819 | 129 ft | 18 kts | 182° |
| 2026-05-07 06:35 | 51.27791 | 6.75812 | 130 ft | 19 kts | 181° |
| 2026-05-07 06:35 | 51.27656 | 6.75810 | 129 ft | 20 kts | 175° |
| 2026-05-07 06:36 | 51.27535 | 6.75896 | 127 ft | 16 kts | 159° |
| 2026-05-07 06:36 | 51.27470 | 6.75988 | 127 ft | 13 kts | 81° |
| 2026-05-07 06:36 | 51.27501 | 6.76107 | 127 ft | 9 kts | 58° |
| 2026-05-07 06:36 | 51.27557 | 6.76144 | 127 ft | 9 kts | 359° |
| 2026-05-07 06:37 | 51.27595 | 6.76176 | 127 ft | 3 kts | 47° |
| 2026-05-07 06:37 | 51.27608 | 6.76198 | 126 ft | 2 kts | 45° |
| 2026-05-07 06:37 | 51.27611 | 6.76201 | 126 ft | 0 kts | 45° |
| 2026-05-07 06:43 | 51.27611 | 6.76202 | 131 ft | 0 kts | 45° |